Elk Rapids, Michigan
Current Conditions -  °F | °C
As of 6:17 AM on Monday 20 Oct 2014 (Local Time) from KACB Reporting Station
Overcast Overcast  
Wind Chill: 50°   Ceiling: 5000
Heat Index: 50°   Visibility: 10mi
Dew Point: 46°   Wind: 3mph
Humidity: 89%   Direction: 170°S
Pressure: 29.74"   Gusts: NA
Location:  44.9°N, 85.42°W
Report Text: KACB 201017Z AUTO 17003KT 10SM OVC050 10/08 A2974 RMK AO2 T00980080
Loading
Personal Weather Stations






























Interactive Weather Map
Tropical Storm Tracking
New forecast layout! Learn more

10-Day Weather Forecast

Advertisements
Track Severe Weather on mobile